Time;durP1;ratioP1;P1;durP2;ratioP2;P2;SDS_P1;SDS_P2;PMS_P1;PMS_P2;Temp;Humidity;BMP_temperature;BMP_pressure;BME280_temperature;BME280_humidity;BME280_pressure;Samples;Min_cycle;Max_cycle;Signal;HPM_P1;HPM_P2
2022/09/25 00:00:14;;;;;;;;;;;;;;;13.54;55.49;100246.13;5101732;28;19916;-71
2022/09/25 00:02:39;;;;;;;;;;;;;;;13.57;55.57;100240.44;5102149;28;19970;-71
2022/09/25 00:05:05;;;;;;;;;;;;;;;13.58;55.09;100240.28;5084268;28;19908;-71
2022/09/25 00:07:30;;;;;;;;;;;;;;;13.55;55.24;100235.31;5077971;28;20141;-71
2022/09/25 00:09:56;;;;;;;;;;;;;;;13.54;55.18;100230.16;5082390;28;19912;-71
2022/09/25 00:12:21;;;;;;;;;;;;;;;13.52;55.25;100242.75;5085579;28;19908;-70
2022/09/25 00:14:50;;;;;;;;;;;;;;;13.48;55.50;100239.59;5085752;28;20198;-70
2022/09/25 00:17:15;;;;;;;;;;;;;;;13.36;55.43;100233.81;5085548;28;20102;-70
2022/09/25 00:19:49;;;;;;;;;;;;;;;13.28;55.68;100235.63;5085717;28;19916;-71
2022/09/25 00:22:18;;;;;;;;;;;;;;;13.32;55.56;100244.94;5085085;28;19916;-72
2022/09/25 00:24:43;;;;;;;;;;;;;;;13.32;55.79;100240.47;5085615;28;19916;-70
2022/09/25 00:27:08;;;;;;;;;;;;;;;13.36;55.89;100243.59;5085148;28;19954;-71
2022/09/25 00:29:37;;;;;;;;;;;;;;;13.31;55.60;100240.63;5085360;28;19912;-70
2022/09/25 00:32:07;;;;;;;;;;;;;;;13.08;53.58;100243.94;5084221;28;19916;-70
2022/09/25 00:34:32;;;;;;;;;;;;;;;12.79;54.96;100240.91;5085378;28;19973;-70
2022/09/25 00:36:57;;;;;;;;;;;;;;;12.39;57.22;100245.13;5085521;28;19920;-70
2022/09/25 00:39:23;;;;;;;;;;;;;;;12.40;57.72;100248.59;5085044;28;19944;-70
2022/09/25 00:41:48;;;;;;;;;;;;;;;12.37;58.06;100240.97;5084993;28;19976;-71
2022/09/25 00:44:32;;;;;;;;;;;;;;;12.34;58.96;100241.28;5085296;28;20194;-71
2022/09/25 00:46:57;;;;;;;;;;;;;;;12.39;58.10;100239.81;5085062;28;19912;-71
2022/09/25 00:49:24;;;;;;;;;;;;;;;12.55;59.04;100235.56;5085108;28;19987;-71
2022/09/25 00:51:54;;;;;;;;;;;;;;;12.68;57.17;100230.59;5085306;28;19916;-71
2022/09/25 00:54:28;;;;;;;;;;;;;;;12.67;57.30;100229.78;5084732;28;19909;-70
2022/09/25 00:56:55;;;;;;;;;;;;;;;12.75;56.81;100231.59;5085116;28;19916;-70
2022/09/25 00:59:22;;;;;;;;;;;;;;;12.67;57.25;100227.13;5085084;28;20174;-70
2022/09/25 01:01:48;;;;;;;;;;;;;;;12.71;57.79;100219.66;5084525;28;19987;-70
2022/09/25 01:04:14;;;;;;;;;;;;;;;12.75;57.82;100224.47;5096533;28;20144;-70
2022/09/25 01:06:39;;;;;;;;;;;;;;;12.68;58.39;100223.47;5093475;28;19916;-70
2022/09/25 01:09:05;;;;;;;;;;;;;;;12.82;57.87;100226.47;5104825;28;19916;-70
2022/09/25 01:11:30;;;;;;;;;;;;;;;12.89;57.90;100217.66;5105243;28;19916;-70
2022/09/25 01:13:57;;;;;;;;;;;;;;;12.93;57.60;100223.47;5105217;28;20216;-70
2022/09/25 01:16:29;;;;;;;;;;;;;;;12.57;58.56;100229.09;5104463;28;19951;-70
2022/09/25 01:19:03;;;;;;;;;;;;;;;12.72;58.10;100223.97;5104761;28;19908;-70
2022/09/25 01:21:29;;;;;;;;;;;;;;;12.84;57.99;100222.66;5104371;28;19923;-71
2022/09/25 01:23:54;;;;;;;;;;;;;;;12.96;58.10;100226.63;5104707;28;19908;-71
2022/09/25 01:26:30;;;;;;;;;;;;;;;13.01;57.07;100226.16;5104989;28;19923;-71
2022/09/25 01:28:58;;;;;;;;;;;;;;;12.95;56.44;100222.31;5104607;28;20109;-71
2022/09/25 01:31:31;;;;;;;;;;;;;;;12.84;56.69;100227.97;5104520;28;19916;-71
2022/09/25 01:33:59;;;;;;;;;;;;;;;12.69;56.56;100226.94;5100859;28;19912;-70
2022/09/25 01:36:27;;;;;;;;;;;;;;;12.71;56.97;100223.13;5103324;28;19915;-71
2022/09/25 01:38:57;;;;;;;;;;;;;;;12.68;57.99;100217.31;5099174;28;19919;-70
2022/09/25 01:41:34;;;;;;;;;;;;;;;12.67;58.01;100224.47;5098674;28;20105;-70
2022/09/25 01:44:12;;;;;;;;;;;;;;;12.64;58.65;100224.78;5080154;28;19911;-70
2022/09/25 01:46:43;;;;;;;;;;;;;;;12.59;58.85;100231.59;5097236;28;19916;-71
2022/09/25 01:49:13;;;;;;;;;;;;;;;12.82;58.67;100224.63;5103134;28;19908;-71
2022/09/25 01:51:42;;;;;;;;;;;;;;;12.83;58.72;100222.81;5101654;28;19923;-71
2022/09/25 01:54:13;;;;;;;;;;;;;;;12.90;58.32;100214.00;5103972;28;19939;-71
2022/09/25 01:57:17;;;;;;;;;;;;;;;12.84;58.00;100217.34;5101157;28;19981;-71
2022/09/25 01:59:51;;;;;;;;;;;;;;;12.85;57.57;100226.97;4998561;28;19914;-71
2022/09/25 02:02:19;;;;;;;;;;;;;;;12.77;58.39;100232.28;4997881;28;19941;-71
2022/09/25 02:04:52;;;;;;;;;;;;;;;12.74;58.33;100235.25;5052208;28;19926;-71
2022/09/25 02:07:22;;;;;;;;;;;;;;;12.67;58.57;100231.59;5098801;28;19916;-71
2022/09/25 02:09:51;;;;;;;;;;;;;;;12.53;59.42;100237.53;5102487;28;19908;-71
2022/09/25 02:12:25;;;;;;;;;;;;;;;12.49;56.54;100241.53;5100898;28;20244;-71
2022/09/25 02:14:58;;;;;;;;;;;;;;;12.28;56.39;100231.31;5098278;28;19919;-70
2022/09/25 02:20:30;;;;;;;;;;;;;;;11.98;59.42;100232.69;5095187;28;19930;-70
2022/09/25 02:22:57;;;;;;;;;;;;;;;12.03;59.12;100235.69;5095426;28;19912;-70
2022/09/25 02:25:46;;;;;;;;;;;;;;;12.09;59.65;100229.75;5098900;28;20020;-70
2022/09/25 02:28:11;;;;;;;;;;;;;;;12.20;60.29;100240.06;5084078;28;19923;-70
2022/09/25 02:30:36;;;;;;;;;;;;;;;12.26;60.54;100244.75;5098334;28;19924;-70
2022/09/25 02:33:02;;;;;;;;;;;;;;;12.29;60.10;100248.91;5096741;28;19912;-70
2022/09/25 02:35:27;;;;;;;;;;;;;;;12.24;60.01;100248.53;5098588;28;19923;-70
2022/09/25 02:37:55;;;;;;;;;;;;;;;11.99;55.95;100253.75;5097293;28;19920;-70
2022/09/25 02:40:24;;;;;;;;;;;;;;;11.72;56.99;100241.47;5079472;28;19927;-70
2022/09/25 02:42:55;;;;;;;;;;;;;;;11.63;58.42;100237.13;5099382;28;19912;-70
2022/09/25 02:45:26;;;;;;;;;;;;;;;11.58;56.97;100233.28;5101799;28;20222;-70
2022/09/25 02:47:54;;;;;;;;;;;;;;;11.23;59.65;100240.28;5099514;28;20143;-70
2022/09/25 02:50:20;;;;;;;;;;;;;;;10.92;57.96;100231.94;5097024;28;20209;-71
2022/09/25 02:53:18;;;;;;;;;;;;;;;10.76;60.28;100239.72;5098532;28;19918;-70
2022/09/25 02:55:59;;;;;;;;;;;;;;;10.80;60.82;100236.63;5042701;28;19916;-70
2022/09/25 02:58:36;;;;;;;;;;;;;;;11.00;61.53;100249.72;5098288;28;19964;-70
2022/09/25 03:01:04;;;;;;;;;;;;;;;11.22;60.15;100245.75;5098346;28;20000;-70
2022/09/25 03:03:30;;;;;;;;;;;;;;;11.23;61.09;100253.53;5096941;28;19911;-70
2022/09/25 03:05:56;;;;;;;;;;;;;;;11.25;62.01;100246.28;5097826;28;20414;-70
2022/09/25 03:08:37;;;;;;;;;;;;;;;11.40;61.36;100242.06;5098369;28;20033;-70
2022/09/25 03:11:07;;;;;;;;;;;;;;;11.39;59.38;100242.22;5098412;28;20018;-70
2022/09/25 03:13:33;;;;;;;;;;;;;;;11.29;59.60;100239.69;5096689;28;20172;-70
2022/09/25 03:16:19;;;;;;;;;;;;;;;11.28;59.86;100247.78;5097270;28;20101;-70
2022/09/25 03:18:44;;;;;;;;;;;;;;;11.09;61.84;100238.19;5093818;28;20098;-70
2022/09/25 03:21:10;;;;;;;;;;;;;;;11.15;62.48;100249.00;5097799;28;19924;-70
2022/09/25 03:23:35;;;;;;;;;;;;;;;11.28;61.96;100248.63;5101886;28;19935;-70
2022/09/25 03:26:00;;;;;;;;;;;;;;;11.30;61.71;100245.81;5100001;28;19922;-70
2022/09/25 03:28:26;;;;;;;;;;;;;;;11.36;61.82;100251.31;5098122;28;20205;-71
2022/09/25 03:30:59;;;;;;;;;;;;;;;11.47;62.18;100242.31;5098836;28;19923;-71
2022/09/25 03:33:25;;;;;;;;;;;;;;;11.56;61.38;100244.03;5098028;28;19911;-70
2022/09/25 03:36:00;;;;;;;;;;;;;;;11.65;60.82;100251.06;5096555;28;19923;-70
2022/09/25 03:38:26;;;;;;;;;;;;;;;11.71;61.40;100244.28;5098118;28;19970;-70
2022/09/25 03:40:51;;;;;;;;;;;;;;;11.66;61.07;100243.94;5083609;28;20202;-70
2022/09/25 03:43:16;;;;;;;;;;;;;;;11.78;60.41;100229.44;5099951;28;19927;-70
2022/09/25 03:45:41;;;;;;;;;;;;;;;11.76;59.79;100237.53;5099838;28;19923;-70
2022/09/25 03:48:06;;;;;;;;;;;;;;;11.72;59.52;100230.03;5102669;28;19912;-70
2022/09/25 03:50:32;;;;;;;;;;;;;;;11.62;59.54;100231.97;5100670;28;19930;-70
2022/09/25 03:52:57;;;;;;;;;;;;;;;11.51;59.34;100233.06;5100214;28;19912;-70
2022/09/25 03:55:24;;;;;;;;;;;;;;;11.35;57.90;100231.09;5105056;28;19961;-70
2022/09/25 03:57:50;;;;;;;;;;;;;;;11.22;58.41;100229.84;5103753;28;19920;-70
2022/09/25 04:00:15;;;;;;;;;;;;;;;11.31;60.09;100227.09;5100299;28;20262;-70
2022/09/25 04:02:41;;;;;;;;;;;;;;;11.34;59.57;100229.44;5101577;28;19920;-70
2022/09/25 04:05:06;;;;;;;;;;;;;;;11.33;58.16;100232.25;5100402;28;19952;-70
2022/09/25 04:07:31;;;;;;;;;;;;;;;11.24;57.46;100234.00;5101436;28;19978;-70
2022/09/25 04:09:57;;;;;;;;;;;;;;;11.12;58.63;100241.38;5100814;28;19920;-70
2022/09/25 04:12:22;;;;;;;;;;;;;;;10.93;58.40;100241.53;5099866;28;19934;-70
2022/09/25 04:14:47;;;;;;;;;;;;;;;10.94;59.77;100247.66;5083015;28;19924;-70
2022/09/25 04:17:13;;;;;;;;;;;;;;;10.91;60.94;100245.31;5099793;28;19927;-70
2022/09/25 04:19:38;;;;;;;;;;;;;;;11.04;61.01;100238.66;5100270;28;19947;-70
2022/09/25 04:22:03;;;;;;;;;;;;;;;10.96;61.62;100243.06;5103048;28;19923;-70
2022/09/25 04:27:12;;;;;;;;;;;;;;;11.15;60.20;100235.75;5101013;28;20228;-70
2022/09/25 04:29:38;;;;;;;;;;;;;;;11.16;59.82;100228.66;5099303;28;19912;-70
2022/09/25 04:34:47;;;;;;;;;;;;;;;10.79;59.15;100245.56;5102824;28;19957;-70
2022/09/25 04:37:12;;;;;;;;;;;;;;;10.49;61.28;100254.69;5104649;28;19916;-70
2022/09/25 04:39:38;;;;;;;;;;;;;;;10.42;60.56;100258.91;5105535;28;20194;-70
2022/09/25 04:42:03;;;;;;;;;;;;;;;10.27;61.13;100257.72;5105150;28;19912;-70
2022/09/25 04:44:29;;;;;;;;;;;;;;;10.00;62.30;100255.03;5105570;28;19911;-70
2022/09/25 04:46:55;;;;;;;;;;;;;;;9.83;63.89;100246.88;5105680;28;19911;-70
2022/09/25 04:49:20;;;;;;;;;;;;;;;9.86;64.41;100262.47;5105428;28;19918;-70
2022/09/25 04:51:45;;;;;;;;;;;;;;;10.03;64.12;100258.22;5099413;28;19912;-70
2022/09/25 04:54:10;;;;;;;;;;;;;;;10.32;62.82;100251.97;5105428;28;19939;-70
2022/09/25 04:56:36;;;;;;;;;;;;;;;10.47;62.92;100264.59;5104647;28;20094;-70
2022/09/25 04:59:01;;;;;;;;;;;;;;;10.55;63.39;100261.19;5105081;28;20387;-71
2022/09/25 05:01:26;;;;;;;;;;;;;;;10.65;64.16;100269.09;5105327;28;19907;-71
2022/09/25 05:03:54;;;;;;;;;;;;;;;10.83;63.74;100275.22;5105093;28;20225;-71
2022/09/25 05:06:20;;;;;;;;;;;;;;;10.76;64.60;100277.63;5104902;28;20080;-70
2022/09/25 05:08:51;;;;;;;;;;;;;;;10.95;63.99;100273.19;5105215;28;19915;-70
2022/09/25 05:11:17;;;;;;;;;;;;;;;11.15;63.72;100267.56;5104746;28;19916;-70
2022/09/25 05:13:45;;;;;;;;;;;;;;;11.28;64.07;100271.63;5105200;28;20186;-70
2022/09/25 05:16:10;;;;;;;;;;;;;;;11.36;63.98;100280.50;5086835;28;19916;-70
2022/09/25 05:18:36;;;;;;;;;;;;;;;11.39;64.41;100282.00;5104864;28;20095;-70
2022/09/25 05:21:04;;;;;;;;;;;;;;;11.39;63.46;100285.47;5104726;28;19916;-70
2022/09/25 05:23:29;;;;;;;;;;;;;;;11.49;63.32;100294.22;5086762;28;20199;-70
2022/09/25 05:25:59;;;;;;;;;;;;;;;11.75;61.71;100286.25;5104455;28;19986;-71
2022/09/25 05:28:25;;;;;;;;;;;;;;;11.95;60.45;100283.44;5104213;28;19979;-71
2022/09/25 05:30:50;;;;;;;;;;;;;;;12.13;59.82;100289.50;5100637;28;19923;-71
2022/09/25 05:33:17;;;;;;;;;;;;;;;12.66;59.22;100297.19;5101960;28;19987;-72
2022/09/25 05:35:43;;;;;;;;;;;;;;;12.71;58.01;100291.38;5100549;28;19962;-70
2022/09/25 05:38:08;;;;;;;;;;;;;;;13.08;57.36;100304.25;5101853;28;19916;-70
2022/09/25 05:40:33;;;;;;;;;;;;;;;13.14;57.15;100297.44;5082486;28;19957;-70
2022/09/25 05:42:59;;;;;;;;;;;;;;;13.76;56.33;100295.13;5100803;28;19912;-70
2022/09/25 05:45:24;;;;;;;;;;;;;;;13.83;55.58;100293.47;5101476;28;19998;-70
2022/09/25 05:48:06;;;;;;;;;;;;;;;14.10;54.67;100301.03;5082619;28;20109;-70
2022/09/25 05:50:32;;;;;;;;;;;;;;;13.82;56.36;100302.44;5102918;28;19923;-70
2022/09/25 05:52:58;;;;;;;;;;;;;;;13.97;56.23;100303.41;5101948;28;19908;-72
2022/09/25 05:55:24;;;;;;;;;;;;;;;14.35;54.76;100296.47;5101084;28;19924;-71
2022/09/25 05:57:50;;;;;;;;;;;;;;;14.38;55.22;100293.44;5100453;28;20253;-71
2022/09/25 06:00:16;;;;;;;;;;;;;;;14.70;54.61;100289.84;5085614;28;20186;-71
2022/09/25 06:02:41;;;;;;;;;;;;;;;15.01;53.44;100289.81;5101014;28;19991;-71
2022/09/25 06:05:07;;;;;;;;;;;;;;;15.28;51.76;100288.44;5101826;28;19919;-71
2022/09/25 06:07:33;;;;;;;;;;;;;;;15.58;50.04;100284.88;5101536;28;19912;-71
2022/09/25 06:09:58;;;;;;;;;;;;;;;15.91;49.47;100290.75;5102159;28;20113;-71
2022/09/25 06:12:23;;;;;;;;;;;;;;;16.03;49.27;100283.09;5100724;28;19919;-72
2022/09/25 06:14:49;;;;;;;;;;;;;;;16.04;49.00;100281.28;5101138;28;19919;-71
2022/09/25 06:17:14;;;;;;;;;;;;;;;16.16;49.01;100282.47;5100048;28;19931;-72
2022/09/25 06:19:39;;;;;;;;;;;;;;;15.96;48.97;100290.19;5100174;28;20257;-72
2022/09/25 06:22:04;;;;;;;;;;;;;;;16.26;49.10;100285.69;5101370;28;19927;-72
2022/09/25 06:24:30;;;;;;;;;;;;;;;16.25;48.91;100281.34;5100209;28;19911;-72
2022/09/25 06:26:55;;;;;;;;;;;;;;;16.48;48.33;100286.56;5101049;28;19916;-72
2022/09/25 06:29:20;;;;;;;;;;;;;;;16.69;48.15;100288.53;5099807;28;19919;-72
2022/09/25 06:31:45;;;;;;;;;;;;;;;16.75;47.36;100287.78;5100251;28;19982;-72
2022/09/25 06:34:11;;;;;;;;;;;;;;;16.88;46.93;100288.75;5100527;28;19920;-72
2022/09/25 06:36:36;;;;;;;;;;;;;;;17.01;46.90;100289.91;5099705;28;19946;-72
2022/09/25 06:39:02;;;;;;;;;;;;;;;17.03;46.78;100293.22;5100328;28;19947;-72
2022/09/25 06:41:27;;;;;;;;;;;;;;;17.04;46.42;100285.00;5099583;28;19954;-72
2022/09/25 06:43:53;;;;;;;;;;;;;;;17.47;45.49;100285.78;5100654;28;19920;-72
2022/09/25 06:46:20;;;;;;;;;;;;;;;17.72;44.38;100282.75;5100128;28;19990;-72
2022/09/25 06:48:56;;;;;;;;;;;;;;;17.78;44.22;100268.56;5099926;28;19912;-72
2022/09/25 06:51:22;;;;;;;;;;;;;;;18.19;43.37;100279.31;5100148;28;19922;-72
2022/09/25 06:53:51;;;;;;;;;;;;;;;18.17;42.99;100273.34;5099449;28;19920;-72
2022/09/25 06:56:17;;;;;;;;;;;;;;;18.18;43.87;100278.50;5081221;28;20141;-72
2022/09/25 06:58:42;;;;;;;;;;;;;;;18.20;43.09;100275.63;5099962;28;19934;-71
2022/09/25 07:01:09;;;;;;;;;;;;;;;17.79;42.98;100267.56;5100817;28;20142;-72
2022/09/25 07:03:43;;;;;;;;;;;;;;;17.38;44.61;100268.22;5286420;22;19931;-67
2022/09/25 07:06:10;;;;;;;;;;;;;;;17.81;43.86;100258.28;5084163;28;19912;-67
2022/09/25 07:08:35;;;;;;;;;;;;;;;18.27;42.88;100257.72;5091560;28;20113;-67
2022/09/25 07:11:01;;;;;;;;;;;;;;;18.25;42.54;100250.91;5102336;28;19970;-67
2022/09/25 07:13:28;;;;;;;;;;;;;;;18.51;40.93;100253.69;5100850;28;19987;-68
2022/09/25 07:15:55;;;;;;;;;;;;;;;18.32;40.87;100270.53;5099236;28;20002;-67
2022/09/25 07:18:20;;;;;;;;;;;;;;;18.46;40.97;100262.31;5097911;28;20315;-67
2022/09/25 07:20:46;;;;;;;;;;;;;;;18.55;40.24;100254.94;5096963;28;19973;-67
2022/09/25 07:23:12;;;;;;;;;;;;;;;18.67;40.46;100264.09;5097144;28;19950;-67
2022/09/25 07:25:37;;;;;;;;;;;;;;;18.72;40.52;100258.94;5098178;28;19927;-67
2022/09/25 07:28:03;;;;;;;;;;;;;;;18.78;40.68;100266.22;5099357;28;20117;-67
2022/09/25 07:30:28;;;;;;;;;;;;;;;19.20;40.05;100269.56;5097883;28;20246;-68
2022/09/25 07:32:53;;;;;;;;;;;;;;;19.45;39.89;100261.72;5098377;28;20117;-68
2022/09/25 07:35:19;;;;;;;;;;;;;;;19.55;39.69;100264.84;5100328;28;19962;-67
2022/09/25 07:37:44;;;;;;;;;;;;;;;19.59;39.33;100263.41;5100007;28;19931;-67
2022/09/25 07:40:13;;;;;;;;;;;;;;;19.82;38.29;100265.69;5098910;28;19912;-67
2022/09/25 07:42:39;;;;;;;;;;;;;;;19.69;38.53;100271.88;5102394;28;19916;-67
2022/09/25 07:45:04;;;;;;;;;;;;;;;19.82;38.43;100263.00;5102613;28;19946;-68
2022/09/25 07:47:29;;;;;;;;;;;;;;;19.98;38.36;100269.78;5102373;28;19916;-68
2022/09/25 07:49:55;;;;;;;;;;;;;;;20.40;36.74;100266.56;5102304;28;19941;-67
2022/09/25 07:52:20;;;;;;;;;;;;;;;20.40;37.10;100261.19;5102531;28;19916;-67
2022/09/25 07:54:45;;;;;;;;;;;;;;;20.23;37.68;100251.91;5101891;28;19916;-67
2022/09/25 07:57:12;;;;;;;;;;;;;;;20.33;37.18;100254.97;5102177;28;19951;-68
2022/09/25 07:59:37;;;;;;;;;;;;;;;20.69;36.48;100249.03;5102217;28;20096;-67
2022/09/25 08:02:02;;;;;;;;;;;;;;;20.76;36.34;100250.88;5102280;28;19916;-68
2022/09/25 08:04:28;;;;;;;;;;;;;;;20.78;36.51;100248.78;5101641;28;19912;-68
2022/09/25 08:06:53;;;;;;;;;;;;;;;21.17;35.30;100251.25;5102293;28;19912;-67
2022/09/25 08:09:18;;;;;;;;;;;;;;;21.23;35.13;100238.81;5102580;28;20127;-67
2022/09/25 08:11:43;;;;;;;;;;;;;;;21.12;35.53;100232.22;5102049;28;19916;-68
2022/09/25 08:14:09;;;;;;;;;;;;;;;21.32;35.56;100232.09;5102094;28;19912;-67
2022/09/25 08:16:35;;;;;;;;;;;;;;;21.38;34.71;100233.91;5102124;28;20202;-67
2022/09/25 08:19:00;;;;;;;;;;;;;;;21.12;34.76;100226.84;5101892;28;19961;-68
2022/09/25 08:21:25;;;;;;;;;;;;;;;20.94;34.60;100227.59;5102130;28;19908;-67
2022/09/25 08:23:51;;;;;;;;;;;;;;;20.70;35.17;100217.56;5102211;28;19916;-67
2022/09/25 08:26:18;;;;;;;;;;;;;;;20.68;35.13;100225.03;5101903;28;19961;-67
2022/09/25 08:28:43;;;;;;;;;;;;;;;20.50;35.48;100225.75;5102295;28;20208;-67
2022/09/25 08:31:09;;;;;;;;;;;;;;;20.77;35.86;100225.59;5102317;28;19935;-67
2022/09/25 08:33:34;;;;;;;;;;;;;;;20.96;35.47;100222.00;5105383;28;19916;-68
2022/09/25 08:36:01;;;;;;;;;;;;;;;21.32;34.02;100216.75;5105697;28;19908;-69
2022/09/25 08:38:27;;;;;;;;;;;;;;;21.44;34.43;100205.25;5105540;28;20121;-68
2022/09/25 08:41:09;;;;;;;;;;;;;;;21.67;33.73;100208.97;5105456;28;20102;-68
2022/09/25 08:43:36;;;;;;;;;;;;;;;21.85;33.59;100202.78;5105578;28;19916;-68
2022/09/25 08:49:02;;;;;;;;;;;;;;;21.25;35.26;100204.38;5105338;28;20182;-67
2022/09/25 08:51:29;;;;;;;;;;;;;;;21.24;35.32;100208.94;5105970;28;19911;-68
2022/09/25 08:53:54;;;;;;;;;;;;;;;21.72;33.95;100196.69;5105308;28;19954;-67
2022/09/25 08:56:20;;;;;;;;;;;;;;;21.78;34.41;100195.78;5105443;28;19908;-67
2022/09/25 08:58:51;;;;;;;;;;;;;;;21.63;34.06;100188.06;5105324;28;19916;-67
2022/09/25 09:01:24;;;;;;;;;;;;;;;21.50;33.96;100193.59;5104684;28;19915;-67
2022/09/25 09:03:55;;;;;;;;;;;;;;;21.39;34.51;100175.47;5104756;28;19924;-67
2022/09/25 09:06:22;;;;;;;;;;;;;;;21.58;33.35;100175.25;5105199;28;19908;-67
2022/09/25 09:08:54;;;;;;;;;;;;;;;21.66;33.25;100174.97;5120915;28;19922;-67
2022/09/25 09:11:29;;;;;;;;;;;;;;;21.57;33.50;100178.19;5105149;28;20201;-67
2022/09/25 09:14:05;;;;;;;;;;;;;;;21.33;33.69;100179.88;5105419;28;19954;-67
2022/09/25 09:16:46;;;;;;;;;;;;;;;21.12;34.46;100196.38;5104832;28;19908;-67
2022/09/25 09:19:12;;;;;;;;;;;;;;;21.01;34.73;100187.97;5104804;28;20232;-68
2022/09/25 09:21:43;;;;;;;;;;;;;;;21.10;35.08;100188.53;5104734;28;19940;-67
2022/09/25 09:24:09;;;;;;;;;;;;;;;21.33;34.81;100182.56;5105307;28;19916;-67
2022/09/25 09:26:53;;;;;;;;;;;;;;;21.55;33.94;100178.41;5104893;28;20185;-67
2022/09/25 09:29:36;;;;;;;;;;;;;;;21.57;33.39;100165.53;5104311;28;19912;-67
2022/09/25 09:32:14;;;;;;;;;;;;;;;21.58;33.04;100161.78;5104665;28;19908;-67
2022/09/25 09:34:45;;;;;;;;;;;;;;;21.55;33.55;100156.03;5104425;28;20108;-68
2022/09/25 09:37:17;;;;;;;;;;;;;;;21.28;33.84;100147.38;5104432;28;19923;-67
2022/09/25 09:40:00;;;;;;;;;;;;;;;21.47;33.31;100137.47;5104394;28;19915;-67
2022/09/25 09:42:31;;;;;;;;;;;;;;;20.97;34.15;100135.63;5104235;28;20205;-67
2022/09/25 09:45:08;;;;;;;;;;;;;;;20.86;34.44;100125.56;5104353;28;19983;-67
2022/09/25 09:47:42;;;;;;;;;;;;;;;21.00;34.08;100124.41;5104398;28;19916;-67
2022/09/25 09:50:20;;;;;;;;;;;;;;;21.08;34.45;100120.63;5104881;28;19908;-67
2022/09/25 09:52:48;;;;;;;;;;;;;;;21.35;34.38;100122.03;5101336;28;19943;-67
2022/09/25 09:55:19;;;;;;;;;;;;;;;21.52;34.31;100121.44;5096255;28;20077;-68
2022/09/25 09:57:47;;;;;;;;;;;;;;;21.04;34.91;100114.03;5099237;28;19924;-67
2022/09/25 10:00:14;;;;;;;;;;;;;;;21.22;34.50;100115.94;5097994;28;19908;-67
2022/09/25 10:02:43;;;;;;;;;;;;;;;21.34;34.90;100115.00;5099610;28;19923;-67
2022/09/25 10:05:16;;;;;;;;;;;;;;;21.04;33.31;100114.84;5101292;28;19927;-67
2022/09/25 10:07:42;;;;;;;;;;;;;;;20.87;33.79;100111.06;5102420;28;19922;-67
2022/09/25 10:10:14;;;;;;;;;;;;;;;20.94;33.72;100111.84;5098162;28;19935;-67
2022/09/25 10:12:42;;;;;;;;;;;;;;;21.09;34.15;100105.28;5098942;28;19959;-67
2022/09/25 10:15:14;;;;;;;;;;;;;;;21.18;33.63;100112.03;5098062;28;20074;-67
2022/09/25 10:17:40;;;;;;;;;;;;;;;21.10;34.82;100105.06;5098979;28;19959;-67
2022/09/25 10:20:16;;;;;;;;;;;;;;;21.26;35.10;100106.38;5097752;28;19916;-67
2022/09/25 10:22:43;;;;;;;;;;;;;;;21.38;34.75;100109.16;5095595;28;19923;-67
2022/09/25 10:25:09;;;;;;;;;;;;;;;21.08;35.80;100107.16;5098471;28;19918;-67
2022/09/25 10:27:40;;;;;;;;;;;;;;;20.93;35.71;100095.91;5097757;28;20158;-68
2022/09/25 10:30:05;;;;;;;;;;;;;;;20.95;36.43;100096.50;5095328;28;19916;-67
2022/09/25 10:32:40;;;;;;;;;;;;;;;20.85;37.20;100091.63;5097188;28;20196;-68
2022/09/25 10:35:12;;;;;;;;;;;;;;;20.98;37.68;100082.59;5097293;28;19940;-67
2022/09/25 10:37:37;;;;;;;;;;;;;;;20.85;36.67;100074.66;5094260;28;19916;-67
2022/09/25 10:40:04;;;;;;;;;;;;;;;21.16;35.94;100079.94;5098897;28;20193;-67
2022/09/25 10:42:40;;;;;;;;;;;;;;;21.19;36.35;100078.66;5097170;28;20240;-67
2022/09/25 10:45:25;;;;;;;;;;;;;;;21.25;36.90;100075.94;5095355;28;19911;-67
2022/09/25 10:50:35;;;;;;;;;;;;;;;21.39;35.68;100073.94;5097090;28;19935;-67
2022/09/25 10:53:02;;;;;;;;;;;;;;;21.33;35.95;100072.13;5098884;28;19981;-67
2022/09/25 10:55:30;;;;;;;;;;;;;;;21.31;36.16;100064.28;5096059;28;20163;-68
2022/09/25 10:57:58;;;;;;;;;;;;;;;21.37;36.37;100056.34;5097264;28;19994;-67
2022/09/25 11:00:25;;;;;;;;;;;;;;;21.35;36.60;100054.69;5098260;28;19949;-67
2022/09/25 11:02:53;;;;;;;;;;;;;;;21.50;36.12;100048.09;5096932;28;20226;-67
2022/09/25 11:05:29;;;;;;;;;;;;;;;21.45;36.29;100053.34;5096888;28;19977;-67
2022/09/25 11:07:59;;;;;;;;;;;;;;;21.57;36.89;100033.50;5097964;28;19946;-67
2022/09/25 11:10:29;;;;;;;;;;;;;;;21.64;37.10;100039.63;5098494;28;20034;-67
2022/09/25 11:12:56;;;;;;;;;;;;;;;21.32;37.20;100043.53;5096795;28;19916;-67
2022/09/25 11:15:24;;;;;;;;;;;;;;;21.27;37.27;100033.44;5097692;28;19912;-67
2022/09/25 11:17:51;;;;;;;;;;;;;;;21.23;35.86;100031.44;5099826;28;20310;-67
2022/09/25 11:20:20;;;;;;;;;;;;;;;21.52;36.39;100022.59;5101774;28;19935;-67
2022/09/25 11:22:56;;;;;;;;;;;;;;;21.47;35.70;100021.63;5100788;28;20232;-68
2022/09/25 11:25:21;;;;;;;;;;;;;;;21.49;35.68;100020.34;5096609;28;19970;-68
2022/09/25 11:27:49;;;;;;;;;;;;;;;21.51;36.65;100020.94;5096495;28;19916;-67
2022/09/25 11:30:18;;;;;;;;;;;;;;;21.43;37.18;100020.41;5098119;28;19912;-67
2022/09/25 11:32:43;;;;;;;;;;;;;;;21.61;37.41;100025.78;5097379;28;19924;-68
2022/09/25 11:35:21;;;;;;;;;;;;;;;21.71;36.84;100009.06;5096496;28;19950;-68
2022/09/25 11:38:05;;;;;;;;;;;;;;;21.85;37.18;100000.59;5097909;28;19916;-68
2022/09/25 11:43:30;;;;;;;;;;;;;;;21.68;37.53;99999.56;5095028;28;20150;-67
2022/09/25 11:46:02;;;;;;;;;;;;;;;21.86;37.41;99994.16;5094284;28;19966;-67
2022/09/25 11:48:36;;;;;;;;;;;;;;;21.97;37.42;99990.69;5098020;28;19920;-67
2022/09/25 11:51:01;;;;;;;;;;;;;;;21.97;37.35;99992.56;5113341;28;20117;-67
2022/09/25 11:53:31;;;;;;;;;;;;;;;22.09;36.08;99988.03;5096890;28;19991;-68
2022/09/25 11:56:16;;;;;;;;;;;;;;;22.10;35.75;99986.97;5097684;28;19955;-68
2022/09/25 11:58:54;;;;;;;;;;;;;;;21.75;36.61;99986.00;5086144;28;20117;-67
2022/09/25 12:01:22;;;;;;;;;;;;;;;21.91;38.23;99971.91;5096129;28;20018;-67
2022/09/25 12:03:55;;;;;;;;;;;;;;;22.00;37.83;99970.53;5095751;28;19947;-67
2022/09/25 12:06:39;;;;;;;;;;;;;;;22.08;37.60;99972.09;5098007;28;19912;-68
2022/09/25 12:09:11;;;;;;;;;;;;;;;22.16;37.39;99955.56;5104485;28;19978;-67
2022/09/25 12:11:45;;;;;;;;;;;;;;;21.91;37.70;99961.94;5099537;28;19947;-67
2022/09/25 12:14:19;;;;;;;;;;;;;;;21.98;38.38;99968.06;5099396;28;19955;-67
2022/09/25 12:17:08;;;;;;;;;;;;;;;22.23;37.65;99959.81;5099134;28;19947;-67
2022/09/25 12:19:42;;;;;;;;;;;;;;;22.10;38.19;99956.50;5087126;28;20182;-67
2022/09/25 12:22:08;;;;;;;;;;;;;;;21.91;38.28;99953.84;5093983;28;20151;-67
2022/09/25 12:24:43;;;;;;;;;;;;;;;21.98;38.68;99942.97;5099134;28;19919;-67
2022/09/25 12:27:14;;;;;;;;;;;;;;;22.17;38.22;99935.63;5098102;28;19954;-67
2022/09/25 12:29:59;;;;;;;;;;;;;;;22.25;37.78;99936.13;5097496;28;19912;-67
2022/09/25 12:32:36;;;;;;;;;;;;;;;22.21;38.11;99928.72;5097023;28;19976;-67
2022/09/25 12:35:09;;;;;;;;;;;;;;;22.29;39.00;99937.28;5097959;28;19912;-68
2022/09/25 12:37:45;;;;;;;;;;;;;;;22.28;37.85;99927.56;5098041;28;19972;-67
2022/09/25 12:40:14;;;;;;;;;;;;;;;22.40;37.55;99932.13;5096719;28;20135;-67
2022/09/25 12:42:48;;;;;;;;;;;;;;;22.25;37.72;99930.72;5099190;28;19916;-67
2022/09/25 12:45:20;;;;;;;;;;;;;;;22.20;37.99;99927.09;5098981;28;19927;-67
2022/09/25 12:47:52;;;;;;;;;;;;;;;22.42;37.80;99928.16;5097600;28;19916;-67
2022/09/25 12:50:19;;;;;;;;;;;;;;;22.37;37.94;99913.72;5097627;28;19912;-67
2022/09/25 12:52:50;;;;;;;;;;;;;;;22.00;38.38;99911.19;5098363;28;19985;-68
2022/09/25 12:55:30;;;;;;;;;;;;;;;22.20;38.40;99906.31;5098524;28;19931;-67
2022/09/25 12:57:58;;;;;;;;;;;;;;;22.34;39.10;99908.78;5098914;28;20105;-67
2022/09/25 13:00:26;;;;;;;;;;;;;;;22.35;38.26;99894.25;5097288;28;20075;-68
2022/09/25 13:03:10;;;;;;;;;;;;;;;22.39;37.83;99900.81;5096963;28;19951;-67